createdAt,value
2018-04-07T00:01:47.741Z,66.47
2018-04-07T00:04:51.010Z,66.49
2018-04-07T00:07:55.088Z,66.82
2018-04-07T00:10:59.130Z,67.23
2018-04-07T00:14:02.406Z,67.59
2018-04-07T00:17:05.664Z,67.64
2018-04-07T00:20:08.922Z,67.82
2018-04-07T00:23:12.239Z,68.75
2018-04-07T00:26:15.538Z,68.35
2018-04-07T00:29:18.796Z,68.06
2018-04-07T00:32:22.051Z,68.44
2018-04-07T00:35:25.325Z,68.52
2018-04-07T00:38:28.618Z,68.09
2018-04-07T00:41:31.898Z,67.95
2018-04-07T00:44:35.157Z,68.73
2018-04-07T00:47:38.415Z,69.50
2018-04-07T00:50:41.714Z,69.16
2018-04-07T00:53:44.972Z,69.66
2018-04-07T00:56:48.220Z,69.42
2018-04-07T00:59:52.304Z,69.86
2018-04-07T01:02:55.605Z,69.66
2018-04-07T01:05:58.846Z,69.15
2018-04-07T01:09:02.124Z,69.01
2018-04-07T01:12:05.413Z,69.57
2018-04-07T01:15:08.671Z,70.00
2018-04-07T01:18:11.921Z,70.56
2018-04-07T01:21:15.167Z,70.15
2018-04-07T01:24:18.417Z,70.59
2018-04-07T01:27:28.338Z,70.76
2018-04-07T01:30:31.579Z,70.30
2018-04-07T01:33:34.916Z,70.67
2018-04-07T01:36:38.175Z,71.18
2018-04-07T01:39:41.442Z,70.79
2018-04-07T01:42:44.723Z,70.47
2018-04-07T01:45:47.990Z,70.43
2018-04-07T01:48:52.013Z,70.06
2018-04-07T01:51:55.255Z,70.32
2018-04-07T01:54:58.521Z,70.00
2018-04-07T01:58:01.767Z,71.37
2018-04-07T02:01:05.024Z,71.26
2018-04-07T02:04:08.280Z,72.24
2018-04-07T02:07:12.327Z,74.82
2018-04-07T02:10:15.576Z,72.62
2018-04-07T02:13:18.899Z,72.82
2018-04-07T02:16:22.932Z,73.56
2018-04-07T02:19:26.426Z,73.03
2018-04-07T02:22:30.518Z,73.63
2018-04-07T02:25:34.536Z,73.83
2018-04-07T02:28:38.590Z,74.23
2018-04-07T02:31:41.843Z,72.46
2018-04-07T02:34:45.147Z,73.00
2018-04-07T02:37:49.229Z,73.76
2018-04-07T02:40:52.475Z,74.17
2018-04-07T02:43:55.740Z,73.34
2018-04-07T02:46:59.137Z,73.83
2018-04-07T02:50:02.415Z,74.32
2018-04-07T02:53:05.694Z,74.13
2018-04-07T02:56:08.972Z,74.34
2018-04-07T02:59:12.228Z,73.78
2018-04-07T03:02:15.498Z,73.95
2018-04-07T03:05:18.759Z,73.22
2018-04-07T03:08:22.024Z,73.89
2018-04-07T03:11:25.289Z,73.50
2018-04-07T03:14:28.554Z,74.46
2018-04-07T03:17:32.565Z,75.70
2018-04-07T03:20:35.829Z,76.37
2018-04-07T03:23:39.082Z,74.77
2018-04-07T03:26:42.331Z,73.78
2018-04-07T03:29:45.573Z,73.76
2018-04-07T03:32:49.365Z,73.78
2018-04-07T03:35:52.718Z,73.85
2018-04-07T03:38:55.964Z,74.90
2018-04-07T03:41:59.213Z,74.56
2018-04-07T03:45:02.496Z,74.43
2018-04-07T03:48:05.905Z,73.91
2018-04-07T03:51:09.172Z,74.26
2018-04-07T03:54:12.429Z,74.36
2018-04-07T03:57:16.440Z,73.95
2018-04-07T04:00:20.464Z,74.32
2018-04-07T04:03:23.722Z,75.65
2018-04-07T04:06:27.766Z,75.81
2018-04-07T04:09:31.026Z,76.96
2018-04-07T04:12:34.286Z,77.04
2018-04-07T04:15:37.544Z,76.11
2018-04-07T04:18:40.805Z,75.37
2018-04-07T04:21:44.047Z,75.80
2018-04-07T04:24:48.112Z,75.18
2018-04-07T04:27:51.363Z,75.91
2018-04-07T04:30:55.451Z,75.53
2018-04-07T04:33:58.736Z,74.15
2018-04-07T04:37:02.003Z,73.77
2018-04-07T04:40:05.422Z,74.25
2018-04-07T04:43:08.677Z,74.13
2018-04-07T04:46:11.955Z,73.61
2018-04-07T04:49:15.226Z,74.27
2018-04-07T04:52:18.510Z,73.94
2018-04-07T04:55:21.791Z,74.47
2018-04-07T04:58:25.230Z,73.78
2018-04-07T05:01:28.525Z,73.17
2018-04-07T05:04:32.240Z,73.70
2018-04-07T05:07:35.533Z,73.39
2018-04-07T05:10:38.852Z,72.69
2018-04-07T05:13:42.104Z,73.78
2018-04-07T05:16:45.387Z,77.00
2018-04-07T05:19:48.649Z,78.80
2018-04-07T05:22:52.739Z,78.91
2018-04-07T05:25:56.013Z,78.49
2018-04-07T05:28:59.332Z,77.29
2018-04-07T05:32:02.600Z,74.86
2018-04-07T05:35:05.888Z,72.70
2018-04-07T05:38:09.765Z,71.91
2018-04-07T05:41:13.799Z,70.83
2018-04-07T05:44:17.829Z,69.48
2018-04-07T05:47:21.105Z,70.54
2018-04-07T05:50:25.141Z,70.15
2018-04-07T05:53:28.537Z,69.71
2018-04-07T05:56:31.791Z,68.14
2018-04-07T05:59:35.057Z,68.67
2018-04-07T06:02:38.312Z,66.68
2018-04-07T06:05:42.354Z,65.84
2018-04-07T06:08:45.617Z,65.34
2018-04-07T06:11:49.640Z,65.66
2018-04-07T06:14:53.686Z,61.61
2018-04-07T06:17:56.921Z,59.85
2018-04-07T06:21:00.191Z,57.26
2018-04-07T06:24:03.505Z,53.94
2018-04-07T06:27:06.732Z,53.80
2018-04-07T06:30:09.985Z,55.68
2018-04-07T06:33:13.255Z,55.01
2018-04-07T06:36:16.512Z,55.46
2018-04-07T06:39:19.791Z,53.61
2018-04-07T06:42:23.043Z,55.44
2018-04-07T06:45:26.547Z,53.41
2018-04-07T06:48:30.615Z,54.91
2018-04-07T06:51:34.014Z,53.85
2018-04-07T06:54:39.252Z,54.67
2018-04-07T06:57:42.599Z,55.23
2018-04-07T07:00:46.201Z,55.79
2018-04-07T07:03:51.419Z,56.15
2018-04-07T07:06:56.477Z,54.37
2018-04-07T07:10:00.507Z,53.00
2018-04-07T07:13:03.759Z,54.59
2018-04-07T07:16:07.027Z,52.51
2018-04-07T07:19:10.344Z,52.62
2018-04-07T07:22:13.848Z,51.22
2018-04-07T07:25:17.117Z,51.60
2018-04-07T07:28:20.369Z,52.91
2018-04-07T07:31:24.682Z,51.15
2018-04-07T07:34:35.920Z,53.50
2018-04-07T07:37:39.296Z,51.02
2018-04-07T07:40:46.284Z,49.66
2018-04-07T07:43:49.580Z,51.27
2018-04-07T07:46:52.858Z,48.99
2018-04-07T07:49:56.176Z,48.75
2018-04-07T07:53:00.216Z,49.59
2018-04-07T07:56:03.493Z,47.33
2018-04-07T07:59:07.523Z,48.69
2018-04-07T08:02:10.820Z,48.07
2018-04-07T08:05:14.187Z,52.42
2018-04-07T08:08:18.204Z,49.62
2018-04-07T08:11:22.319Z,48.10
2018-04-07T08:14:25.617Z,50.12
2018-04-07T08:17:29.642Z,50.34
2018-04-07T08:20:33.743Z,46.16
2018-04-07T08:23:36.994Z,46.61
2018-04-07T08:26:40.244Z,46.76
2018-04-07T08:29:44.292Z,45.46
2018-04-07T08:32:47.555Z,46.70
2018-04-07T08:35:51.573Z,44.09
2018-04-07T08:38:55.579Z,45.07
2018-04-07T08:41:59.662Z,42.20
2018-04-07T08:45:02.931Z,41.15
2018-04-07T08:48:06.180Z,40.61
2018-04-07T08:51:10.326Z,40.80
2018-04-07T08:54:13.576Z,40.63
2018-04-07T08:57:16.898Z,37.67
2018-04-07T09:00:20.442Z,38.68
2018-04-07T09:03:23.857Z,37.96
2018-04-07T09:06:27.127Z,37.35
2018-04-07T09:09:30.945Z,36.63
2018-04-07T09:12:34.299Z,38.90
2018-04-07T09:15:38.372Z,39.29
2018-04-07T09:18:41.805Z,37.50
2018-04-07T09:21:46.001Z,39.52
2018-04-07T09:24:49.390Z,39.33
2018-04-07T09:27:53.650Z,40.90
2018-04-07T09:31:02.397Z,37.88
2018-04-07T09:34:06.456Z,35.73
2018-04-07T09:37:09.816Z,37.47
2018-04-07T09:40:13.872Z,36.21
2018-04-07T09:43:17.161Z,35.12
2018-04-07T09:46:20.427Z,36.45
2018-04-07T09:49:24.509Z,31.04
2018-04-07T09:52:27.764Z,32.69
2018-04-07T09:55:31.032Z,33.66
2018-04-07T09:58:35.071Z,34.56
2018-04-07T10:01:38.330Z,33.86
2018-04-07T10:04:41.618Z,32.81
2018-04-07T10:07:44.911Z,31.54
2018-04-07T10:10:59.875Z,33.28
2018-04-07T10:14:04.985Z,32.55
2018-04-07T10:17:08.347Z,34.08
2018-04-07T10:20:12.473Z,32.77
2018-04-07T10:23:16.515Z,32.22
2018-04-07T10:26:19.808Z,32.27
2018-04-07T10:29:23.316Z,31.82
2018-04-07T10:32:26.581Z,32.69
2018-04-07T10:35:30.628Z,35.45
2018-04-07T10:38:33.894Z,30.37
2018-04-07T10:41:37.917Z,32.10
2018-04-07T10:44:41.953Z,33.46
2018-04-07T10:47:45.215Z,31.39
2018-04-07T10:50:48.508Z,31.93
2018-04-07T10:53:51.784Z,30.21
2018-04-07T10:56:55.039Z,30.37
2018-04-07T10:59:58.311Z,29.39
2018-04-07T11:03:01.681Z,30.34
2018-04-07T11:06:04.976Z,31.44
2018-04-07T11:09:08.213Z,29.89
2018-04-07T11:12:12.247Z,30.32
2018-04-07T11:15:15.507Z,29.84
2018-04-07T11:18:18.905Z,32.22
2018-04-07T11:21:22.163Z,29.92
2018-04-07T11:24:25.659Z,29.94
2018-04-07T11:27:29.712Z,28.79
2018-04-07T11:30:33.010Z,29.74
2018-04-07T11:33:36.256Z,30.26
2018-04-07T11:36:39.548Z,28.25
2018-04-07T11:39:42.819Z,27.93
2018-04-07T11:42:46.860Z,29.60
2018-04-07T11:45:50.131Z,26.71
2018-04-07T11:48:54.182Z,28.07
2018-04-07T11:51:57.496Z,27.02
2018-04-07T11:55:00.920Z,28.04
2018-04-07T11:58:04.247Z,27.76
2018-04-07T12:01:08.551Z,27.67
2018-04-07T12:04:11.827Z,26.41
2018-04-07T12:07:15.086Z,27.06
2018-04-07T12:10:18.346Z,26.50
2018-04-07T12:13:21.608Z,28.47
2018-04-07T12:16:24.907Z,27.49
2018-04-07T12:19:28.222Z,26.50
2018-04-07T12:22:31.485Z,28.08
2018-04-07T12:25:34.757Z,27.52
2018-04-07T12:28:38.035Z,26.25
2018-04-07T12:31:41.288Z,27.61
2018-04-07T12:34:44.574Z,29.12
2018-04-07T12:37:47.844Z,29.08
2018-04-07T12:40:51.854Z,29.83
2018-04-07T12:43:55.116Z,29.60
2018-04-07T12:46:58.391Z,28.46
2018-04-07T12:50:01.650Z,29.07
2018-04-07T12:53:05.684Z,28.44
2018-04-07T12:56:08.964Z,28.75
2018-04-07T12:59:13.144Z,30.20
2018-04-07T13:02:16.414Z,30.64
2018-04-07T13:05:19.689Z,31.60
2018-04-07T13:08:22.960Z,30.47
2018-04-07T13:11:27.012Z,31.32
2018-04-07T13:14:30.261Z,30.97
2018-04-07T13:17:33.524Z,31.21
2018-04-07T13:20:36.779Z,31.64
2018-04-07T13:23:40.813Z,31.52
2018-04-07T13:26:44.092Z,30.84
2018-04-07T13:29:48.144Z,32.00
2018-04-07T13:32:51.437Z,32.15
2018-04-07T13:35:54.755Z,31.97
2018-04-07T13:38:58.031Z,31.86
2018-04-07T13:42:01.369Z,31.90
2018-04-07T13:45:04.691Z,32.17
2018-04-07T13:48:08.707Z,32.84
2018-04-07T13:51:12.785Z,32.44
2018-04-07T13:54:16.059Z,32.64
2018-04-07T13:57:19.311Z,32.88
2018-04-07T14:00:23.336Z,32.63
2018-04-07T14:03:26.661Z,32.93
2018-04-07T14:06:29.931Z,32.50
2018-04-07T14:09:34.053Z,32.67
2018-04-07T14:12:37.311Z,32.42
2018-04-07T14:15:40.599Z,32.67
2018-04-07T14:18:43.869Z,32.49
2018-04-07T14:21:47.151Z,32.90
2018-04-07T14:24:50.421Z,32.33
2018-04-07T14:27:54.447Z,32.62
2018-04-07T14:30:58.510Z,32.48
2018-04-07T14:34:01.863Z,32.47
2018-04-07T14:37:06.007Z,32.28
2018-04-07T14:40:10.426Z,33.20
2018-04-07T14:43:14.456Z,33.15
2018-04-07T14:46:17.746Z,32.33
2018-04-07T14:49:34.450Z,32.52
2018-04-07T14:52:51.324Z,32.67
2018-04-07T14:56:03.007Z,32.04
2018-04-07T14:59:06.312Z,32.26
2018-04-07T15:02:10.393Z,32.68
2018-04-07T15:05:13.778Z,32.64
2018-04-07T15:08:17.172Z,32.91
2018-04-07T15:11:21.295Z,33.54
2018-04-07T15:14:24.573Z,33.05
2018-04-07T15:17:28.700Z,33.57
2018-04-07T15:20:32.737Z,33.24
2018-04-07T15:23:36.065Z,33.38
2018-04-07T15:26:39.343Z,33.19
2018-04-07T15:29:42.635Z,33.20
2018-04-07T15:32:45.979Z,33.26
2018-04-07T15:35:49.261Z,33.87
2018-04-07T15:38:52.764Z,34.15
2018-04-07T15:41:56.165Z,34.17
2018-04-07T15:44:59.519Z,33.84
2018-04-07T15:48:04.555Z,34.02
2018-04-07T15:51:07.896Z,34.02
2018-04-07T15:54:11.924Z,34.15
2018-04-07T15:57:15.223Z,33.75
2018-04-07T16:00:18.483Z,33.43
2018-04-07T16:03:22.539Z,34.04
2018-04-07T16:06:27.363Z,33.76
2018-04-07T16:09:30.992Z,33.83
2018-04-07T16:12:34.267Z,34.06
2018-04-07T16:15:37.556Z,33.62
2018-04-07T16:18:40.845Z,33.64
2018-04-07T16:21:44.222Z,33.39
2018-04-07T16:24:47.479Z,33.98
2018-04-07T16:27:50.744Z,33.90
2018-04-07T16:30:54.349Z,34.21
2018-04-07T16:33:57.752Z,34.03
2018-04-07T16:37:01.069Z,34.38
2018-04-07T16:40:05.312Z,34.60
2018-04-07T16:43:09.532Z,34.33
2018-04-07T16:46:13.607Z,34.56
2018-04-07T16:49:16.937Z,34.35
2018-04-07T16:52:21.364Z,33.60
2018-04-07T16:55:24.654Z,33.63
2018-04-07T16:58:27.926Z,33.92
2018-04-07T17:01:31.328Z,34.24
2018-04-07T17:04:34.696Z,34.82
2018-04-07T17:07:38.772Z,35.17
2018-04-07T17:10:42.980Z,35.58
2018-04-07T17:13:46.256Z,35.66
2018-04-07T17:16:49.656Z,35.86
2018-04-07T17:19:52.917Z,36.20
2018-04-07T17:22:57.140Z,36.58
2018-04-07T17:26:01.197Z,36.96
2018-04-07T17:29:04.485Z,37.25
2018-04-07T17:32:07.754Z,37.84
2018-04-07T17:35:11.056Z,38.14
2018-04-07T17:38:16.045Z,38.58
2018-04-07T17:41:19.320Z,38.87
2018-04-07T17:44:22.595Z,39.35
2018-04-07T17:47:25.891Z,39.90
2018-04-07T17:50:29.941Z,40.57
2018-04-07T17:53:33.393Z,40.97
2018-04-07T17:56:36.733Z,41.06
2018-04-07T17:59:40.171Z,41.37
2018-04-07T18:02:43.612Z,41.83
2018-04-07T18:05:46.971Z,42.26
2018-04-07T18:08:50.322Z,42.78
2018-04-07T18:11:53.786Z,42.90
2018-04-07T18:14:57.057Z,43.33
2018-04-07T18:18:00.337Z,44.29
2018-04-07T18:21:03.797Z,45.08
2018-04-07T18:24:07.834Z,47.04
2018-04-07T18:27:11.102Z,48.54
2018-04-07T18:30:15.156Z,47.91
2018-04-07T18:33:18.505Z,48.41
2018-04-07T18:36:21.744Z,49.68
2018-04-07T18:39:25.033Z,50.39
2018-04-07T18:42:28.296Z,49.65
2018-04-07T18:45:31.564Z,49.53
2018-04-07T18:48:34.846Z,49.65
2018-04-07T18:51:38.150Z,49.73
2018-04-07T18:54:41.500Z,50.00
2018-04-07T18:57:45.544Z,50.36
2018-04-07T19:00:48.818Z,50.96
2018-04-07T19:03:53.104Z,52.21
2018-04-07T19:06:57.519Z,52.11
2018-04-07T19:10:00.803Z,52.57
2018-04-07T19:13:04.173Z,53.21
2018-04-07T19:16:08.358Z,53.52
2018-04-07T19:19:11.649Z,53.85
2018-04-07T19:22:15.186Z,54.35
2018-04-07T19:25:19.256Z,55.50
2018-04-07T19:28:23.344Z,55.00
2018-04-07T19:31:26.693Z,55.49
2018-04-07T19:34:30.055Z,56.10
2018-04-07T19:37:33.401Z,56.42
2018-04-07T19:40:37.566Z,56.94
2018-04-07T19:43:41.910Z,57.45
2018-04-07T19:46:45.219Z,57.62
2018-04-07T19:49:48.557Z,58.05
2018-04-07T19:52:52.796Z,58.14
2018-04-07T19:55:56.124Z,57.97
2018-04-07T19:58:59.398Z,58.54
2018-04-07T20:02:02.693Z,58.88
2018-04-07T20:05:05.984Z,58.80
2018-04-07T20:08:09.781Z,58.64
2018-04-07T20:11:13.059Z,58.57
2018-04-07T20:14:16.313Z,59.24
2018-04-07T20:17:19.572Z,59.08
2018-04-07T20:20:22.886Z,59.80
2018-04-07T20:23:26.143Z,59.99
2018-04-07T20:26:29.424Z,59.86
2018-04-07T20:29:32.693Z,59.61
2018-04-07T20:32:35.962Z,59.78
2018-04-07T20:35:39.403Z,59.85
2018-04-07T20:38:42.699Z,61.19
2018-04-07T20:41:46.081Z,63.12
2018-04-07T20:44:49.335Z,61.51
2018-04-07T20:47:53.289Z,61.53
2018-04-07T20:51:13.438Z,61.43
2018-04-07T20:54:16.818Z,62.24
2018-04-07T20:57:20.857Z,62.25
2018-04-07T21:00:24.164Z,61.53
2018-04-07T21:03:27.490Z,61.79
2018-04-07T21:06:30.861Z,60.96
2018-04-07T21:09:34.184Z,61.56
2018-04-07T21:12:37.442Z,61.72
2018-04-07T21:15:40.781Z,62.08
2018-04-07T21:18:44.836Z,62.62
2018-04-07T21:21:48.776Z,63.58
2018-04-07T21:24:52.176Z,63.51
2018-04-07T21:27:55.475Z,64.28
2018-04-07T21:31:03.222Z,64.95
2018-04-07T21:34:07.316Z,63.26
2018-04-07T21:37:11.198Z,63.98
2018-04-07T21:40:17.114Z,64.01
2018-04-07T21:43:54.782Z,63.67
2018-04-07T21:47:01.417Z,64.00
2018-04-07T21:50:05.991Z,64.38
2018-04-07T21:53:09.301Z,64.56
2018-04-07T21:56:14.763Z,64.43
2018-04-07T21:59:18.777Z,64.65
2018-04-07T22:02:24.125Z,65.03
2018-04-07T22:05:28.336Z,65.49
2018-04-07T22:08:34.203Z,65.23
2018-04-07T22:11:37.464Z,65.67
2018-04-07T22:14:40.703Z,66.01
2018-04-07T22:17:43.978Z,67.08
2018-04-07T22:20:48.011Z,68.36
2018-04-07T22:23:51.308Z,69.34
2018-04-07T22:26:54.572Z,66.83
2018-04-07T22:29:57.946Z,66.75
2018-04-07T22:33:01.219Z,67.00
2018-04-07T22:36:04.604Z,68.32
2018-04-07T22:39:07.871Z,67.85
2018-04-07T22:42:11.127Z,68.60
2018-04-07T22:45:14.368Z,68.14
2018-04-07T22:48:17.608Z,67.45
2018-04-07T22:51:20.884Z,67.74
2018-04-07T22:54:24.144Z,66.72
2018-04-07T22:57:27.675Z,67.47
2018-04-07T23:00:32.539Z,69.02
2018-04-07T23:03:35.816Z,67.76
2018-04-07T23:06:39.123Z,67.17
2018-04-07T23:09:42.387Z,67.41
2018-04-07T23:12:45.633Z,67.67
2018-04-07T23:15:48.897Z,67.82
2018-04-07T23:18:52.921Z,67.92
2018-04-07T23:21:56.225Z,67.42
2018-04-07T23:24:59.476Z,68.04
2018-04-07T23:28:02.727Z,68.20
2018-04-07T23:31:05.980Z,68.24
2018-04-07T23:34:09.264Z,68.62
2018-04-07T23:37:12.512Z,68.77
2018-04-07T23:40:15.791Z,69.53
2018-04-07T23:43:19.825Z,68.96
2018-04-07T23:46:23.065Z,69.21
2018-04-07T23:49:26.649Z,69.53
2018-04-07T23:52:29.980Z,70.57
2018-04-07T23:55:33.221Z,70.53
2018-04-07T23:58:36.479Z,70.73
